createdAt,value
2022-09-15T00:01:30.526Z,73.86
2022-09-15T00:03:59.967Z,73.68
2022-09-15T00:06:42.617Z,73.71
2022-09-15T00:09:11.881Z,73.86
2022-09-15T00:11:41.180Z,73.93
2022-09-15T00:14:23.620Z,74.21
2022-09-15T00:16:52.919Z,74.06
2022-09-15T00:19:36.006Z,74.31
2022-09-15T00:22:05.418Z,74.51
2022-09-15T00:24:34.738Z,74.54
2022-09-15T00:27:04.069Z,74.60
2022-09-15T00:29:46.415Z,74.55
2022-09-15T00:32:31.164Z,74.85
2022-09-15T00:35:13.627Z,74.97
2022-09-15T00:37:43.105Z,74.75
2022-09-15T00:40:12.039Z,74.73
2022-09-15T00:45:38.284Z,74.83
2022-09-15T00:48:12.182Z,74.98
2022-09-15T00:50:43.872Z,75.28
2022-09-15T00:53:27.872Z,75.10
2022-09-15T00:55:58.155Z,75.35
2022-09-15T00:58:47.772Z,74.92
2022-09-15T01:01:16.941Z,75.32
2022-09-15T01:03:46.677Z,75.26
2022-09-15T01:06:43.683Z,75.23
2022-09-15T01:09:33.629Z,75.30
2022-09-15T01:12:03.480Z,75.25
2022-09-15T01:14:32.832Z,75.36
2022-09-15T01:17:21.287Z,75.30
2022-09-15T01:20:00.683Z,75.34
2022-09-15T01:22:29.799Z,75.38
2022-09-15T01:25:26.622Z,75.40
2022-09-15T01:28:20.832Z,75.45
2022-09-15T01:32:02.358Z,75.42
2022-09-15T01:34:44.845Z,75.55
2022-09-15T01:37:32.082Z,75.52
2022-09-15T01:40:16.232Z,75.56
2022-09-15T01:42:46.688Z,75.65
2022-09-15T01:45:35.063Z,75.70
2022-09-15T01:48:08.362Z,75.53
2022-09-15T01:50:44.832Z,75.81
2022-09-15T01:53:18.713Z,75.62
2022-09-15T01:55:57.562Z,75.73
2022-09-15T01:58:27.081Z,75.76
2022-09-15T02:01:04.465Z,76.11
2022-09-15T02:04:01.851Z,75.85
2022-09-15T02:06:37.910Z,76.13
2022-09-15T02:09:14.030Z,76.13
2022-09-15T02:11:59.486Z,76.29
2022-09-15T02:14:51.268Z,76.39
2022-09-15T02:17:39.222Z,76.37
2022-09-15T02:20:33.470Z,76.44
2022-09-15T02:23:10.283Z,76.54
2022-09-15T02:26:00.368Z,76.65
2022-09-15T02:28:45.598Z,76.80
2022-09-15T02:31:19.632Z,76.66
2022-09-15T02:34:08.191Z,76.64
2022-09-15T02:36:39.431Z,76.42
2022-09-15T02:39:13.629Z,76.39
2022-09-15T02:41:43.242Z,76.45
2022-09-15T02:44:12.764Z,76.16
2022-09-15T02:46:42.582Z,76.26
2022-09-15T02:49:11.872Z,76.56
2022-09-15T02:51:54.302Z,76.56
2022-09-15T02:54:37.000Z,76.96
2022-09-15T02:57:07.439Z,76.51
2022-09-15T02:59:55.057Z,76.82
2022-09-15T03:02:25.532Z,76.74
2022-09-15T03:05:10.081Z,76.87
2022-09-15T03:07:53.153Z,76.61
2022-09-15T03:10:35.987Z,76.81
2022-09-15T03:13:05.374Z,76.93
2022-09-15T03:15:34.311Z,76.79
2022-09-15T03:18:03.687Z,77.03
2022-09-15T03:20:46.080Z,77.11
2022-09-15T03:23:15.181Z,77.39
2022-09-15T03:25:46.935Z,77.14
2022-09-15T03:28:30.144Z,77.13
2022-09-15T03:31:12.999Z,77.10
2022-09-15T03:33:56.277Z,77.06
2022-09-15T03:36:25.343Z,77.11
2022-09-15T03:39:08.028Z,77.26
2022-09-15T03:41:36.780Z,77.34
2022-09-15T03:44:05.860Z,77.38
2022-09-15T03:46:35.905Z,77.32
2022-09-15T03:49:04.827Z,77.40
2022-09-15T03:51:47.931Z,77.53
2022-09-15T03:54:17.809Z,77.64
2022-09-15T03:57:11.968Z,77.56
2022-09-15T03:59:54.396Z,77.51
2022-09-15T04:02:23.844Z,77.67
2022-09-15T04:04:52.731Z,77.47
2022-09-15T04:07:21.767Z,77.54
2022-09-15T04:09:52.190Z,77.59
2022-09-15T04:12:20.917Z,77.58
2022-09-15T04:14:50.044Z,77.84
2022-09-15T04:17:18.923Z,77.86
2022-09-15T04:19:47.555Z,77.86
2022-09-15T04:22:33.137Z,77.73
2022-09-15T04:25:01.858Z,78.06
2022-09-15T04:27:34.524Z,77.76
2022-09-15T04:30:03.329Z,77.86
2022-09-15T04:32:32.068Z,78.17
2022-09-15T04:35:00.893Z,77.83
2022-09-15T04:37:29.932Z,78.14
2022-09-15T04:40:12.401Z,78.16
2022-09-15T04:42:41.264Z,78.35
2022-09-15T04:45:10.449Z,78.21
2022-09-15T04:47:39.407Z,78.17
2022-09-15T04:50:21.884Z,78.24
2022-09-15T04:52:50.852Z,78.14
2022-09-15T04:58:18.978Z,78.43
2022-09-15T05:01:08.792Z,78.38
2022-09-15T05:03:41.914Z,78.61
2022-09-15T05:06:14.040Z,78.68
2022-09-15T05:08:44.398Z,78.78
2022-09-15T05:11:13.957Z,78.68
2022-09-15T05:13:43.631Z,78.78
2022-09-15T05:16:28.585Z,78.74
2022-09-15T05:19:01.281Z,78.73
2022-09-15T05:21:43.803Z,78.69
2022-09-15T05:24:12.716Z,78.90
2022-09-15T05:26:42.395Z,78.80
2022-09-15T05:29:11.496Z,78.92
2022-09-15T05:31:40.258Z,78.88
2022-09-15T05:34:10.287Z,78.85
2022-09-15T05:36:52.985Z,78.68
2022-09-15T05:39:21.898Z,78.96
2022-09-15T05:42:04.393Z,78.91
2022-09-15T05:44:33.346Z,78.89
2022-09-15T05:47:02.255Z,79.00
2022-09-15T05:49:31.088Z,79.30
2022-09-15T05:52:00.407Z,78.88
2022-09-15T05:54:42.674Z,79.12
2022-09-15T05:57:11.890Z,79.20
2022-09-15T05:59:42.527Z,79.00
2022-09-15T06:02:12.131Z,78.99
2022-09-15T06:04:41.939Z,79.22
2022-09-15T06:07:24.666Z,79.28
2022-09-15T06:10:08.148Z,79.15
2022-09-15T06:12:37.607Z,79.10
2022-09-15T06:15:07.408Z,79.45
2022-09-15T06:17:50.119Z,78.96
2022-09-15T06:20:32.408Z,79.17
2022-09-15T06:23:01.428Z,79.18
2022-09-15T06:25:30.187Z,79.25
2022-09-15T06:28:12.557Z,79.20
2022-09-15T06:30:41.813Z,79.26
2022-09-15T06:33:10.971Z,79.02
2022-09-15T06:35:40.409Z,79.21
2022-09-15T06:38:09.815Z,79.06
2022-09-15T06:40:38.714Z,79.16
2022-09-15T06:43:08.213Z,79.24
2022-09-15T06:45:37.607Z,79.14
2022-09-15T06:48:23.272Z,79.20
2022-09-15T06:50:56.153Z,79.04
2022-09-15T06:53:25.060Z,79.04
2022-09-15T06:56:13.585Z,78.91
2022-09-15T06:58:59.087Z,78.91
2022-09-15T07:01:35.290Z,78.87
2022-09-15T07:04:08.887Z,79.33
2022-09-15T07:06:39.827Z,79.27
2022-09-15T07:09:09.117Z,79.08
2022-09-15T07:11:38.254Z,79.15
2022-09-15T07:14:07.831Z,79.13
2022-09-15T07:16:37.405Z,79.04
2022-09-15T07:19:19.861Z,78.81
2022-09-15T07:21:48.632Z,78.80
2022-09-15T07:24:17.932Z,78.92
2022-09-15T07:27:01.293Z,78.85
2022-09-15T07:29:44.359Z,78.71
2022-09-15T07:32:12.934Z,78.81
2022-09-15T07:34:42.270Z,78.87
2022-09-15T07:37:11.479Z,78.56
2022-09-15T07:39:40.434Z,78.11
2022-09-15T07:42:23.265Z,77.21
2022-09-15T07:45:06.940Z,77.73
2022-09-15T07:47:35.805Z,77.75
2022-09-15T07:50:18.248Z,77.37
2022-09-15T07:52:47.834Z,76.88
2022-09-15T07:55:17.008Z,76.90
2022-09-15T07:57:46.414Z,76.66
2022-09-15T08:00:16.429Z,77.30
2022-09-15T08:02:45.549Z,76.72
2022-09-15T08:05:15.023Z,76.08
2022-09-15T08:07:57.814Z,75.78
2022-09-15T08:10:26.620Z,75.68
2022-09-15T08:12:55.496Z,75.67
2022-09-15T08:15:25.510Z,75.33
2022-09-15T08:17:54.575Z,75.44
2022-09-15T08:20:42.406Z,75.30
2022-09-15T08:23:24.915Z,75.07
2022-09-15T08:26:13.780Z,74.97
2022-09-15T08:28:43.796Z,74.05
2022-09-15T08:31:14.548Z,74.48
2022-09-15T08:33:48.948Z,74.23
2022-09-15T08:36:31.549Z,74.28
2022-09-15T08:39:01.256Z,74.08
2022-09-15T08:41:36.088Z,73.73
2022-09-15T08:44:42.785Z,72.96
2022-09-15T08:50:08.239Z,72.99
2022-09-15T08:53:25.932Z,72.60
2022-09-15T08:55:57.048Z,72.72
2022-09-15T08:58:39.874Z,71.73
2022-09-15T09:01:11.589Z,71.26
2022-09-15T09:04:02.276Z,71.37
2022-09-15T09:06:49.863Z,70.60
2022-09-15T09:09:37.102Z,70.54
2022-09-15T09:12:36.460Z,70.43
2022-09-15T09:15:43.093Z,69.31
2022-09-15T09:18:28.983Z,68.27
2022-09-15T09:21:19.161Z,69.05
2022-09-15T09:24:02.581Z,68.84
2022-09-15T09:26:50.492Z,68.61
2022-09-15T09:29:27.436Z,68.80
2022-09-15T09:31:58.701Z,68.90
2022-09-15T09:35:00.557Z,69.03
2022-09-15T09:37:30.033Z,68.21
2022-09-15T09:39:58.856Z,65.75
2022-09-15T09:42:43.295Z,65.93
2022-09-15T09:45:15.853Z,65.18
2022-09-15T09:48:04.656Z,64.08
2022-09-15T09:50:39.555Z,65.71
2022-09-15T09:53:33.858Z,65.48
2022-09-15T09:56:12.012Z,64.92
2022-09-15T09:58:41.022Z,65.06
2022-09-15T10:01:26.680Z,64.31
2022-09-15T10:04:19.563Z,63.30
2022-09-15T10:06:49.039Z,62.82
2022-09-15T10:09:33.532Z,62.87
2022-09-15T10:12:41.555Z,62.98
2022-09-15T10:15:24.767Z,62.50
2022-09-15T10:17:56.093Z,62.60
2022-09-15T10:20:32.781Z,63.14
2022-09-15T10:23:29.463Z,62.99
2022-09-15T10:26:22.575Z,62.30
2022-09-15T10:29:15.545Z,62.34
2022-09-15T10:32:20.616Z,62.29
2022-09-15T10:35:14.567Z,60.74
2022-09-15T10:38:09.773Z,60.70
2022-09-15T10:40:50.836Z,61.00
2022-09-15T10:43:55.393Z,60.93
2022-09-15T10:47:02.560Z,60.60
2022-09-15T10:49:38.569Z,60.39
2022-09-15T10:53:03.117Z,60.35
2022-09-15T10:55:54.224Z,59.92
2022-09-15T10:59:08.884Z,59.90
2022-09-15T11:02:06.694Z,60.23
2022-09-15T11:04:57.747Z,59.91
2022-09-15T11:10:51.520Z,60.24
2022-09-15T11:13:34.195Z,59.81
2022-09-15T11:16:54.698Z,60.07
2022-09-15T11:19:45.926Z,59.83
2022-09-15T11:22:38.335Z,59.70
2022-09-15T11:25:25.578Z,59.66
2022-09-15T11:28:13.207Z,59.93
2022-09-15T11:30:51.969Z,59.61
2022-09-15T11:33:37.613Z,59.65
2022-09-15T11:36:32.074Z,59.57
2022-09-15T11:39:27.609Z,59.40
2022-09-15T11:42:39.621Z,59.30
2022-09-15T11:46:03.708Z,59.35
2022-09-15T11:48:46.947Z,59.19
2022-09-15T12:00:34.151Z,59.12
2022-09-15T12:03:39.446Z,58.94
2022-09-15T12:10:21.500Z,58.18
2022-09-15T12:13:05.818Z,57.97
2022-09-15T12:15:34.879Z,58.02
2022-09-15T12:18:34.318Z,58.44
2022-09-15T12:21:28.030Z,58.98
2022-09-15T12:24:16.757Z,58.83
2022-09-15T12:26:49.781Z,58.56
2022-09-15T12:29:22.273Z,58.87
2022-09-15T12:36:47.712Z,58.86
2022-09-15T12:39:19.321Z,58.83
2022-09-15T12:41:56.539Z,58.92
2022-09-15T12:44:52.705Z,58.85
2022-09-15T12:47:40.558Z,58.51
2022-09-15T12:50:33.188Z,58.57
2022-09-15T12:53:21.716Z,58.80
2022-09-15T12:55:53.631Z,58.22
2022-09-15T12:58:46.720Z,57.87
2022-09-15T13:01:30.219Z,57.37
2022-09-15T13:03:59.227Z,57.36
2022-09-15T13:06:29.830Z,57.21
2022-09-15T13:09:02.003Z,57.00
2022-09-15T13:11:35.043Z,57.52
2022-09-15T13:14:36.028Z,57.44
2022-09-15T13:17:14.969Z,57.52
2022-09-15T13:19:50.550Z,57.78
2022-09-15T13:26:48.816Z,57.48
2022-09-15T13:29:33.226Z,57.81
2022-09-15T13:39:54.118Z,58.23
2022-09-15T13:42:58.565Z,58.26
2022-09-15T13:49:59.538Z,58.43
2022-09-15T13:55:42.397Z,58.24
2022-09-15T14:01:07.826Z,58.19
2022-09-15T14:06:39.809Z,58.02
2022-09-15T14:09:27.304Z,57.10
2022-09-15T14:12:01.738Z,56.92
2022-09-15T14:14:50.927Z,56.42
2022-09-15T14:17:33.051Z,56.88
2022-09-15T14:20:02.091Z,56.64
2022-09-15T14:22:33.675Z,56.63
2022-09-15T14:25:17.016Z,55.81
2022-09-15T14:27:50.130Z,55.57
2022-09-15T14:30:29.869Z,55.79
2022-09-15T14:33:01.331Z,55.30
2022-09-15T14:35:36.417Z,55.78
2022-09-15T14:38:05.748Z,55.88
2022-09-15T14:40:39.653Z,55.95
2022-09-15T14:43:33.600Z,56.10
2022-09-15T14:46:18.661Z,55.75
2022-09-15T14:49:15.780Z,55.90
2022-09-15T14:51:46.317Z,55.33
2022-09-15T14:54:36.973Z,55.79
2022-09-15T14:57:30.063Z,55.60
2022-09-15T15:00:07.380Z,55.97
2022-09-15T15:03:14.750Z,55.62
2022-09-15T15:06:02.147Z,55.57
2022-09-15T15:08:47.541Z,55.69
2022-09-15T15:11:19.126Z,55.88
2022-09-15T16:02:45.487Z,55.31
2022-09-15T16:05:15.226Z,55.22
2022-09-15T16:07:47.438Z,54.73
2022-09-15T16:10:36.010Z,54.98
2022-09-15T16:13:05.077Z,55.30
2022-09-15T16:15:34.270Z,55.97
2022-09-15T16:18:04.836Z,56.58
2022-09-15T16:20:47.587Z,57.05
2022-09-15T16:23:20.542Z,57.56
2022-09-15T16:26:06.857Z,58.87
2022-09-15T16:28:36.138Z,58.53
2022-09-15T16:31:05.082Z,58.55
2022-09-15T16:33:37.993Z,58.62
2022-09-15T16:36:20.978Z,58.88
2022-09-15T16:38:50.436Z,58.70
2022-09-15T16:41:26.187Z,59.43
2022-09-15T16:43:58.894Z,59.20
2022-09-15T16:46:37.018Z,59.55
2022-09-15T16:49:15.048Z,59.50
2022-09-15T16:51:50.043Z,59.57
2022-09-15T16:54:27.383Z,59.67
2022-09-15T16:57:03.029Z,59.93
2022-09-15T16:59:37.777Z,59.85
2022-09-15T17:02:14.920Z,60.19
2022-09-15T17:04:53.113Z,60.34
2022-09-15T17:07:34.406Z,60.20
2022-09-15T17:10:10.101Z,60.49
2022-09-15T17:12:41.786Z,60.60
2022-09-15T17:15:43.716Z,60.66
2022-09-15T17:18:16.938Z,60.47
2022-09-15T17:20:47.693Z,60.63
2022-09-15T17:23:24.669Z,60.63
2022-09-15T17:25:58.714Z,60.78
2022-09-15T17:28:42.691Z,60.93
2022-09-15T17:31:42.920Z,60.97
2022-09-15T17:34:14.836Z,60.97
2022-09-15T17:36:43.619Z,61.01
2022-09-15T17:39:12.612Z,61.05
2022-09-15T17:41:41.199Z,61.16
2022-09-15T17:44:23.616Z,61.24
2022-09-15T17:46:52.478Z,61.44
2022-09-15T17:49:21.432Z,61.71
2022-09-15T17:51:50.480Z,61.63
2022-09-15T17:54:20.705Z,61.61
2022-09-15T17:57:04.111Z,61.84
2022-09-15T17:59:33.085Z,61.90
2022-09-15T18:02:02.412Z,61.92
2022-09-15T18:04:31.734Z,61.88
2022-09-15T18:07:00.587Z,62.20
2022-09-15T18:09:43.174Z,62.24
2022-09-15T18:12:14.763Z,62.16
2022-09-15T18:14:43.901Z,62.08
2022-09-15T18:17:27.189Z,62.06
2022-09-15T18:19:56.990Z,62.13
2022-09-15T18:22:25.901Z,62.26
2022-09-15T18:24:54.690Z,62.35
2022-09-15T18:27:23.834Z,62.57
2022-09-15T18:29:52.908Z,62.66
2022-09-15T18:32:22.106Z,62.69
2022-09-15T18:34:51.064Z,62.70
2022-09-15T18:37:20.123Z,63.00
2022-09-15T18:44:08.930Z,62.89
2022-09-15T18:46:39.640Z,63.07
2022-09-15T18:49:09.824Z,62.97
2022-09-15T18:51:51.126Z,62.87
2022-09-15T18:55:21.133Z,63.00
2022-09-15T18:57:49.890Z,63.16
2022-09-15T19:00:24.910Z,63.08
2022-09-15T19:03:01.754Z,63.06
2022-09-15T19:05:32.842Z,62.95
2022-09-15T19:08:15.861Z,62.95
2022-09-15T19:10:45.201Z,63.12
2022-09-15T19:13:15.910Z,62.91
2022-09-15T19:16:11.267Z,63.23
2022-09-15T19:18:40.168Z,63.13
2022-09-15T19:21:11.999Z,63.18
2022-09-15T19:23:40.848Z,63.31
2022-09-15T19:26:17.730Z,63.54
2022-09-15T19:31:35.050Z,63.55
2022-09-15T19:34:06.552Z,63.68
2022-09-15T19:36:37.144Z,63.74
2022-09-15T19:39:20.101Z,63.89
2022-09-15T19:42:02.739Z,63.83
2022-09-15T19:44:31.828Z,63.90
2022-09-15T19:47:01.081Z,64.11
2022-09-15T19:49:29.880Z,64.42
2022-09-15T19:51:59.198Z,64.30
2022-09-15T19:54:30.339Z,64.54
2022-09-15T19:56:59.342Z,64.46
2022-09-15T19:59:31.342Z,64.77
2022-09-15T20:02:14.594Z,64.72
2022-09-15T20:07:31.717Z,65.04
2022-09-15T20:10:00.380Z,65.01
2022-09-15T20:12:29.024Z,65.27
2022-09-15T20:14:58.322Z,65.26
2022-09-15T20:17:27.151Z,65.45
2022-09-15T20:19:56.147Z,65.40
2022-09-15T20:22:26.181Z,65.47
2022-09-15T20:24:56.645Z,65.33
2022-09-15T20:27:25.919Z,65.88
2022-09-15T20:29:54.645Z,65.64
2022-09-15T20:32:28.178Z,65.68
2022-09-15T20:34:57.706Z,65.49
2022-09-15T20:37:27.264Z,65.75
2022-09-15T20:39:56.124Z,66.07
2022-09-15T20:42:25.303Z,66.18
2022-09-15T20:44:54.722Z,66.03
2022-09-15T20:47:23.616Z,66.02
2022-09-15T20:49:54.830Z,66.19
2022-09-15T20:52:29.594Z,66.35
2022-09-15T20:55:02.491Z,66.47
2022-09-15T20:57:35.442Z,66.27
2022-09-15T21:00:08.136Z,66.75
2022-09-15T21:02:37.820Z,66.58
2022-09-15T21:05:07.115Z,66.71
2022-09-15T21:07:37.870Z,66.59
2022-09-15T21:10:08.489Z,66.90
2022-09-15T21:12:42.355Z,66.91
2022-09-15T21:15:11.466Z,67.17
2022-09-15T21:17:40.506Z,67.33
2022-09-15T21:20:11.330Z,67.32
2022-09-15T21:22:41.229Z,67.31
2022-09-15T21:25:10.582Z,67.55
2022-09-15T21:27:40.121Z,67.51
2022-09-15T21:30:22.512Z,67.59
2022-09-15T21:33:05.144Z,67.62
2022-09-15T21:35:34.727Z,67.87
2022-09-15T21:38:03.822Z,68.00
2022-09-15T21:40:32.905Z,67.68
2022-09-15T21:43:15.793Z,67.85
2022-09-15T21:45:44.722Z,68.00
2022-09-15T21:48:14.446Z,68.06
2022-09-15T21:50:54.149Z,67.98
2022-09-15T21:53:23.291Z,68.32
2022-09-15T21:55:52.387Z,68.26
2022-09-15T21:58:42.701Z,68.43
2022-09-15T22:01:21.938Z,68.61
2022-09-15T22:03:58.971Z,68.20
2022-09-15T22:06:36.920Z,68.68
2022-09-15T22:09:09.897Z,68.44
2022-09-15T22:11:39.879Z,68.53
2022-09-15T22:14:10.320Z,68.73
2022-09-15T22:16:41.864Z,69.19
2022-09-15T22:19:12.423Z,69.35
2022-09-15T22:21:42.305Z,69.68
2022-09-15T22:24:14.187Z,69.71
2022-09-15T22:26:56.624Z,69.87
2022-09-15T22:29:25.569Z,70.23
2022-09-15T22:32:08.072Z,70.47
2022-09-15T22:34:50.666Z,70.24
2022-09-15T22:37:19.422Z,70.40
2022-09-15T22:39:59.014Z,70.35
2022-09-15T22:42:28.383Z,70.39
2022-09-15T22:44:57.446Z,70.57
2022-09-15T22:47:26.683Z,70.84
2022-09-15T22:49:55.736Z,71.07
2022-09-15T22:52:25.026Z,70.89
2022-09-15T22:54:54.335Z,70.77
2022-09-15T22:57:39.726Z,71.14
2022-09-15T23:00:10.336Z,71.04
2022-09-15T23:02:38.994Z,71.17
2022-09-15T23:05:08.973Z,71.22
2022-09-15T23:07:51.864Z,71.36
2022-09-15T23:10:34.435Z,71.49
2022-09-15T23:13:03.548Z,71.80
2022-09-15T23:15:34.559Z,71.46
2022-09-15T23:18:16.949Z,71.69
2022-09-15T23:20:45.960Z,71.86
2022-09-15T23:23:29.391Z,71.94
2022-09-15T23:25:58.151Z,71.95
2022-09-15T23:28:27.382Z,72.29
2022-09-15T23:31:13.443Z,72.19
2022-09-15T23:33:44.175Z,72.08
2022-09-15T23:36:15.776Z,72.26
2022-09-15T23:38:46.029Z,72.01
2022-09-15T23:41:17.005Z,72.00
2022-09-15T23:43:46.757Z,72.08
2022-09-15T23:46:17.715Z,71.96
2022-09-15T23:48:47.237Z,71.91
2022-09-15T23:51:16.624Z,71.89
2022-09-15T23:53:59.331Z,71.87
2022-09-15T23:56:28.167Z,72.07
2022-09-15T23:59:10.674Z,71.85
